Kipreos Heliport

CL-0022 · 圣地亚哥首都大区, 智利

罗盘
风向 的 风向 040° 直升机
风: 9 kt, 3 beaufort
0 ft 2.000 4.000 6.000 8.000 10.000
Cloud Cloud Cloud Cloud
SCT 4.000
Cloud Cloud Cloud Cloud Cloud Cloud Cloud Cloud
OVC 6.000
METAR SCEL 140700Z 04009KT 8000 -RA SCT040 OVC060 08/07 Q1016 NOSIG

METAR Kipreos Heliport - CL-0022

Kipreos Heliport是,智利中的直升机场。 该机场位于纬度-33,56028和经度-70,74445。 这个机场没有ICAO代码,我们使用CL-0022作为参考。 机场在Santiago FIR中。

该航空气象观测是针对Comodoro Arturo Merino Benítez International Airport在2024年6月14日 03:00, 当地时间进行的。

机场观察

风向为040°,速度为9 kt。

可见度为8 km。

有疏云,零星散落的云朵在4.000 ft的高度 和 乌云密布在6.000 ft的高度。 破损或更高的上限为6.000 ft。

当前天气为光 雨。 温度为8 °C,阵风为3 °C。 露点为7 °C,相对湿度为93%。 海平面上的气压为1016 hPa (QNH)。

白天

今天,太阳从07:45升起,在17:41降落。 这适用于Kipreos Heliport,世界夏令时可能有所不同。 当地时间与世界标准时间之间的时差为-4 小时。 夏令时目前正在进行中。

公司介绍

我们没有关于这个机场的公司信息。

体会

到Vliegles.nl去找飞行课程,跳伞和其他飞行体验。 浏览页面,了解Kipreos Heliport附近所有可用的活动。 你也可以使用搜索功能来寻找你所在地附近的特定飞行课程、跳伞或其他飞行体验。

乌云

4.000 ft SCT 疏云,零星散落的云朵
6.000 ft OVC 乌云密布

温度 & 天气

天气 光 雨
温度 8 °C
露点 7 °C
相对湿度 93%
风寒 3 °C
Kp-index 2 (0-9)

白天

日出
07:45 (3:33)
中午
12:43
日落
17:42

小工具

你想在你的网站上有一个关于Kipreos Heliport的当前航空天气(METAR)的小部件吗?

显示HTML代码
报告变更